Time;durP1;ratioP1;P1;durP2;ratioP2;P2;SDS_P1;SDS_P2;PMS_P1;PMS_P2;Temp;Humidity;BMP_temperature;BMP_pressure;BME280_temperature;BME280_humidity;BME280_pressure;Samples;Min_cycle;Max_cycle;Signal;HPM_P1;HPM_P2
2023/03/11 00:01:03;;;;;;;31.35;8.85;;;14.30;75.70;;;;;;5040331;23;21124;-75
2023/03/11 00:03:29;;;;;;;31.42;8.98;;;14.20;75.60;;;;;;5052639;28;20058;-74
2023/03/11 00:05:57;;;;;;;29.63;9.02;;;14.20;75.30;;;;;;5052571;28;20453;-73
2023/03/11 00:08:24;;;;;;;31.92;9.32;;;14.20;75.90;;;;;;5034535;28;20099;-74
2023/03/11 00:10:57;;;;;;;26.33;9.02;;;14.10;75.80;;;;;;5052237;28;20044;-74
2023/03/11 00:13:23;;;;;;;23.10;7.22;;;14.10;76.40;;;;;;5034046;28;20033;-75
2023/03/11 00:15:54;;;;;;;31.30;9.18;;;14.10;76.10;;;;;;5033837;28;20043;-74
2023/03/11 00:18:24;;;;;;;33.72;9.60;;;14.10;75.80;;;;;;5052041;28;20092;-73
2023/03/11 00:20:50;;;;;;;29.45;10.15;;;14.10;75.60;;;;;;5052062;28;20033;-74
2023/03/11 00:23:16;;;;;;;26.25;8.98;;;14.10;76.10;;;;;;5051433;28;20116;-74
2023/03/11 00:25:44;;;;;;;32.85;9.38;;;14.10;76.00;;;;;;5052023;28;20100;-74
2023/03/11 00:28:10;;;;;;;33.85;9.93;;;14.20;76.10;;;;;;5051886;28;20040;-74
2023/03/11 00:30:36;;;;;;;30.38;10.13;;;14.20;75.90;;;;;;5051852;28;20017;-74
2023/03/11 00:33:02;;;;;;;33.35;10.23;;;14.20;76.10;;;;;;5051719;28;20473;-75
2023/03/11 00:35:32;;;;;;;24.52;9.20;;;14.20;76.10;;;;;;5052198;28;20065;-73
2023/03/11 00:38:01;;;;;;;32.25;9.55;;;14.20;76.30;;;;;;5052132;28;20028;-75
2023/03/11 00:40:29;;;;;;;34.97;9.13;;;14.20;76.10;;;;;;5052046;28;20033;-74
2023/03/11 00:42:55;;;;;;;32.28;9.25;;;14.20;76.30;;;;;;5052145;28;20036;-74
2023/03/11 00:45:21;;;;;;;27.15;9.00;;;14.20;76.20;;;;;;5052002;28;20163;-72
2023/03/11 00:47:47;;;;;;;32.25;9.00;;;14.20;76.30;;;;;;5052053;28;20044;-74
2023/03/11 00:50:19;;;;;;;34.65;8.60;;;14.20;76.40;;;;;;5033620;28;20045;-74
2023/03/11 00:52:46;;;;;;;33.42;9.93;;;14.20;76.30;;;;;;5051803;28;20025;-74
2023/03/11 00:55:14;;;;;;;29.15;8.73;;;14.10;76.20;;;;;;5051938;28;20029;-73
2023/03/11 00:57:41;;;;;;;30.90;8.40;;;14.10;76.10;;;;;;5051994;28;20064;-73
2023/03/11 01:00:10;;;;;;;31.42;8.40;;;14.00;76.10;;;;;;5051930;28;20111;-74
2023/03/11 01:02:36;;;;;;;27.17;8.30;;;14.00;75.90;;;;;;5066961;28;20138;-73
2023/03/11 01:05:04;;;;;;;25.75;7.57;;;14.00;76.10;;;;;;5071541;28;20037;-74
2023/03/11 01:07:30;;;;;;;26.08;7.90;;;13.90;75.90;;;;;;5071619;28;20035;-73
2023/03/11 01:09:56;;;;;;;31.35;8.07;;;14.00;76.10;;;;;;5071718;28;20536;-74
2023/03/11 01:12:21;;;;;;;31.27;9.10;;;14.00;76.00;;;;;;5071901;28;20040;-75
2023/03/11 01:14:47;;;;;;;26.10;7.85;;;14.00;76.00;;;;;;5071647;28;20107;-73
2023/03/11 01:17:13;;;;;;;28.15;8.25;;;13.90;76.00;;;;;;5072068;28;20052;-73
2023/03/11 01:19:38;;;;;;;22.48;7.57;;;13.90;76.20;;;;;;5071884;28;20033;-73
2023/03/11 01:22:04;;;;;;;30.65;7.63;;;14.00;76.30;;;;;;5074259;28;20037;-72
2023/03/11 01:24:30;;;;;;;37.08;7.82;;;14.00;76.30;;;;;;5072029;28;20041;-73
2023/03/11 01:26:56;;;;;;;24.52;6.85;;;14.00;76.40;;;;;;5074549;28;20391;-73
2023/03/11 01:29:21;;;;;;;28.02;7.25;;;14.00;76.50;;;;;;5074995;28;20484;-72
2023/03/11 01:31:47;;;;;;;26.90;7.85;;;14.00;76.80;;;;;;5074770;28;20495;-73
2023/03/11 01:34:13;;;;;;;29.40;7.32;;;14.10;76.80;;;;;;5057073;28;20036;-74
2023/03/11 01:36:38;;;;;;;25.77;6.57;;;14.10;76.80;;;;;;5074905;28;20036;-75
2023/03/11 01:39:04;;;;;;;25.50;7.32;;;14.10;76.90;;;;;;5075126;28;20084;-73
2023/03/11 01:41:30;;;;;;;27.60;6.78;;;14.10;76.90;;;;;;5075043;28;20037;-72
2023/03/11 01:43:56;;;;;;;25.83;7.18;;;14.10;77.00;;;;;;5074800;28;20103;-74
2023/03/11 01:46:47;;;;;;;24.58;7.38;;;14.10;77.20;;;;;;5074840;28;20439;-73
2023/03/11 01:49:13;;;;;;;24.45;6.75;;;14.10;77.50;;;;;;5074941;28;20496;-73
2023/03/11 01:51:42;;;;;;;26.55;6.55;;;14.10;77.40;;;;;;5074746;28;20029;-74
2023/03/11 01:54:38;;;;;;;27.15;6.97;;;14.10;77.70;;;;;;5074852;28;20035;-74
2023/03/11 01:57:11;;;;;;;25.30;6.95;;;14.10;77.80;;;;;;5058349;28;20044;-74
2023/03/11 01:59:40;;;;;;;31.67;6.97;;;14.10;77.90;;;;;;5074361;28;20039;-74
2023/03/11 02:02:29;;;;;;;28.67;6.70;;;14.10;77.90;;;;;;5073979;28;20075;-73
2023/03/11 02:04:56;;;;;;;27.42;7.18;;;14.10;78.10;;;;;;5060020;28;20047;-74
2023/03/11 02:07:21;;;;;;;28.17;6.65;;;14.00;78.10;;;;;;5074364;28;20512;-73
2023/03/11 02:09:47;;;;;;;27.75;6.13;;;14.00;78.30;;;;;;5074995;28;20067;-73
2023/03/11 02:12:14;;;;;;;33.88;7.45;;;14.00;78.30;;;;;;5074061;28;20120;-73
2023/03/11 02:14:46;;;;;;;31.83;6.65;;;13.90;78.10;;;;;;5074167;28;20395;-73
2023/03/11 02:17:12;;;;;;;27.92;6.50;;;13.90;78.70;;;;;;5074385;28;20121;-73
2023/03/11 02:20:04;;;;;;;32.70;6.10;;;13.90;78.50;;;;;;5074099;28;20043;-73
2023/03/11 02:22:32;;;;;;;28.80;6.75;;;13.90;78.90;;;;;;5073832;28;20028;-74
2023/03/11 02:25:09;;;;;;;23.50;6.25;;;13.80;78.50;;;;;;5073619;28;20040;-73
2023/03/11 02:27:40;;;;;;;21.05;6.13;;;13.80;78.90;;;;;;5073650;28;20071;-73
2023/03/11 02:30:07;;;;;;;25.63;7.72;;;13.80;78.70;;;;;;5073640;28;20029;-73
2023/03/11 02:32:33;;;;;;;26.25;6.80;;;13.90;78.70;;;;;;5073008;28;20066;-74
2023/03/11 02:34:59;;;;;;;22.42;6.60;;;13.90;78.70;;;;;;5055882;28;20119;-74
2023/03/11 02:37:25;;;;;;;24.38;8.15;;;13.90;78.60;;;;;;5054727;28;20435;-73
2023/03/11 02:39:53;;;;;;;25.50;7.97;;;13.90;78.60;;;;;;5073988;28;20184;-73
2023/03/11 02:42:30;;;;;;;26.70;9.38;;;13.80;78.30;;;;;;5073527;28;20505;-74
2023/03/11 02:45:06;;;;;;;25.02;7.97;;;13.80;78.30;;;;;;5073447;28;20040;-73
2023/03/11 02:47:34;;;;;;;26.35;9.18;;;13.80;78.40;;;;;;5073205;28;20039;-73
2023/03/11 02:50:00;;;;;;;28.52;10.70;;;13.70;78.20;;;;;;5073399;28;20037;-73
2023/03/11 02:52:28;;;;;;;26.17;9.88;;;13.60;78.20;;;;;;5073686;28;20028;-73
2023/03/11 02:54:53;;;;;;;20.10;9.70;;;13.60;78.30;;;;;;5055818;28;20044;-73
2023/03/11 02:57:19;;;;;;;29.92;10.88;;;13.50;78.30;;;;;;5073344;28;20035;-73
2023/03/11 02:59:45;;;;;;;22.25;8.95;;;13.50;78.10;;;;;;5073217;28;20029;-74
2023/03/11 03:02:10;;;;;;;24.13;9.60;;;13.40;78.00;;;;;;5073662;28;20052;-73
2023/03/11 03:04:36;;;;;;;22.02;8.13;;;13.30;78.00;;;;;;5073564;28;20465;-73
2023/03/11 03:07:02;;;;;;;22.17;8.10;;;13.10;77.90;;;;;;5074030;28;20111;-74
2023/03/11 03:09:27;;;;;;;20.50;8.32;;;13.10;78.20;;;;;;5074213;28;20036;-73
2023/03/11 03:11:53;;;;;;;18.45;8.65;;;13.00;78.10;;;;;;5073109;28;20025;-73
2023/03/11 03:14:19;;;;;;;22.10;8.02;;;13.00;78.30;;;;;;5073317;28;20482;-73
2023/03/11 03:16:44;;;;;;;29.20;7.72;;;12.90;78.00;;;;;;5073175;28;20024;-73
2023/03/11 03:19:10;;;;;;;18.40;6.63;;;12.90;78.20;;;;;;5073131;28;20052;-73
2023/03/11 03:21:36;;;;;;;24.10;8.07;;;12.80;78.10;;;;;;5072788;28;20035;-74
2023/03/11 03:24:02;;;;;;;25.30;8.13;;;12.80;78.10;;;;;;5072588;28;20399;-74
2023/03/11 03:26:28;;;;;;;21.42;7.35;;;12.80;78.10;;;;;;5072744;28;20028;-72
2023/03/11 03:28:53;;;;;;;18.13;7.25;;;12.80;78.30;;;;;;5072482;28;20115;-74
2023/03/11 03:31:19;;;;;;;16.65;6.53;;;12.80;78.30;;;;;;5072414;28;20033;-74
2023/03/11 03:33:45;;;;;;;23.92;7.15;;;12.80;78.20;;;;;;5072618;28;20031;-73
2023/03/11 03:36:13;;;;;;;21.73;7.00;;;12.80;78.10;;;;;;5072485;28;20036;-74
2023/03/11 03:38:39;;;;;;;20.38;6.65;;;12.80;78.10;;;;;;5072846;28;20041;-72
2023/03/11 03:41:04;;;;;;;18.23;6.57;;;12.80;78.10;;;;;;5072319;28;20031;-73
2023/03/11 03:43:30;;;;;;;19.35;6.47;;;12.80;78.20;;;;;;5072494;28;20038;-74
2023/03/11 03:46:04;;;;;;;16.17;7.15;;;12.70;78.10;;;;;;5072251;28;20064;-73
2023/03/11 03:48:30;;;;;;;;;;;12.70;78.10;;;;;;5072590;28;20025;-74
2023/03/11 03:51:00;;;;;;;19.60;6.63;;;12.60;77.60;;;;;;5072240;28;20350;-73
2023/03/11 03:53:26;;;;;;;18.45;6.68;;;12.50;77.90;;;;;;5071912;28;20037;-73
2023/03/11 03:55:53;;;;;;;19.60;6.18;;;12.40;78.10;;;;;;5071826;28;20448;-73
2023/03/11 03:58:19;;;;;;;14.13;6.60;;;12.30;78.10;;;;;;5072013;28;20537;-73
2023/03/11 04:00:44;;;;;;;19.27;6.22;;;12.30;78.10;;;;;;5053541;28;20127;-74
2023/03/11 04:03:10;;;;;;;18.88;6.05;;;12.30;78.20;;;;;;5071662;28;20381;-73
2023/03/11 04:05:36;;;;;;;16.33;6.53;;;12.30;78.50;;;;;;5071750;28;20036;-74
2023/03/11 04:08:02;;;;;;;16.92;6.40;;;12.30;78.20;;;;;;5072087;28;20047;-73
2023/03/11 04:10:27;;;;;;;20.25;6.25;;;12.30;78.30;;;;;;5071619;28;20496;-74
2023/03/11 04:12:53;;;;;;;16.48;5.82;;;12.40;78.50;;;;;;5071863;28;20044;-74
2023/03/11 04:15:19;;;;;;;16.52;5.35;;;12.40;78.30;;;;;;5071883;28;20373;-74
2023/03/11 04:17:44;;;;;;;15.73;6.15;;;12.40;78.30;;;;;;5071610;28;20048;-73
2023/03/11 04:20:10;;;;;;;19.17;5.40;;;12.40;78.30;;;;;;5072395;28;20119;-72
2023/03/11 04:22:36;;;;;;;12.63;5.28;;;12.30;78.30;;;;;;5072054;28;20112;-72
2023/03/11 04:25:02;;;;;;;22.58;7.10;;;12.30;78.40;;;;;;5054008;28;20131;-74
2023/03/11 04:27:28;;;;;;;17.65;5.53;;;12.30;78.50;;;;;;5072705;28;20051;-74
2023/03/11 04:29:54;;;;;;;18.05;6.10;;;12.20;78.30;;;;;;5072112;28;20041;-74
2023/03/11 04:32:21;;;;;;;19.42;6.30;;;12.30;78.50;;;;;;5072173;28;20032;-74
2023/03/11 04:34:47;;;;;;;18.27;6.05;;;12.30;78.70;;;;;;5071946;28;20083;-73
2023/03/11 04:37:13;;;;;;;14.77;5.45;;;12.30;78.60;;;;;;5072271;28;20472;-74
2023/03/11 04:39:39;;;;;;;16.45;5.53;;;12.30;78.60;;;;;;5071670;28;20112;-72
2023/03/11 04:42:04;;;;;;;19.33;6.00;;;12.30;78.50;;;;;;5072010;28;20037;-72
2023/03/11 04:44:30;;;;;;;17.42;6.10;;;12.30;78.60;;;;;;5071904;28;20060;-73
2023/03/11 04:46:56;;;;;;;19.20;5.55;;;12.20;78.40;;;;;;5071834;28;20032;-73
2023/03/11 04:49:21;;;;;;;14.55;5.50;;;12.20;78.40;;;;;;5071884;28;20029;-73
2023/03/11 04:51:47;;;;;;;13.65;5.30;;;12.10;78.50;;;;;;5071726;28;20475;-73
2023/03/11 04:54:13;;;;;;;16.98;5.68;;;12.10;78.40;;;;;;5071842;28;20090;-73
2023/03/11 04:56:38;;;;;;;19.90;5.50;;;12.10;78.60;;;;;;5072004;28;20087;-73
2023/03/11 04:59:04;;;;;;;16.92;5.85;;;12.20;78.50;;;;;;5072231;28;20438;-73
2023/03/11 05:01:30;;;;;;;15.85;5.82;;;12.20;78.60;;;;;;5094718;28;20120;-73
2023/03/11 05:03:56;;;;;;;15.90;5.78;;;12.20;78.50;;;;;;5100170;28;20024;-73
2023/03/11 05:06:21;;;;;;;19.02;5.78;;;12.20;78.50;;;;;;5080628;28;20074;-73
2023/03/11 05:08:47;;;;;;;19.00;6.50;;;12.30;78.60;;;;;;5075737;28;20111;-72
2023/03/11 05:11:13;;;;;;;18.38;5.70;;;12.30;78.60;;;;;;5075737;28;20484;-74
2023/03/11 05:13:38;;;;;;;19.98;5.82;;;12.30;78.60;;;;;;5058650;28;20396;-74
2023/03/11 05:16:04;;;;;;;19.35;6.38;;;12.30;78.60;;;;;;5076666;28;20466;-74
2023/03/11 05:18:31;;;;;;;21.45;6.43;;;12.30;78.80;;;;;;5075792;28;20044;-75
2023/03/11 05:20:57;;;;;;;16.42;5.60;;;12.30;78.70;;;;;;5075751;28;20033;-75
2023/03/11 05:23:22;;;;;;;18.58;6.22;;;12.30;78.70;;;;;;5075408;28;20071;-74
2023/03/11 05:25:48;;;;;;;16.58;6.45;;;12.20;78.80;;;;;;5075366;28;20056;-72
2023/03/11 05:28:14;;;;;;;20.13;7.47;;;12.20;79.10;;;;;;5074941;28;20103;-73
2023/03/11 05:30:40;;;;;;;18.70;6.93;;;12.10;79.10;;;;;;5074786;28;20052;-72
2023/03/11 05:33:05;;;;;;;22.40;7.03;;;12.00;79.30;;;;;;5075131;28;20106;-73
2023/03/11 05:35:31;;;;;;;16.70;7.18;;;12.00;79.60;;;;;;5075212;28;20043;-74
2023/03/11 05:37:57;;;;;;;19.77;6.88;;;12.00;79.90;;;;;;5075208;28;20029;-75
2023/03/11 05:40:22;;;;;;;15.00;5.95;;;11.90;79.60;;;;;;5074988;28;20040;-73
2023/03/11 05:42:48;;;;;;;15.38;6.38;;;11.80;80.00;;;;;;5057020;28;20025;-74
2023/03/11 05:45:14;;;;;;;18.90;7.78;;;11.90;80.20;;;;;;5075146;28;20123;-72
2023/03/11 05:47:41;;;;;;;23.48;6.82;;;11.90;80.30;;;;;;5075126;28;20033;-73
2023/03/11 05:50:08;;;;;;;20.08;7.70;;;11.90;80.30;;;;;;5074611;28;20044;-73
2023/03/11 05:52:33;;;;;;;17.88;6.53;;;12.00;80.70;;;;;;5074701;28;20520;-73
2023/03/11 05:54:59;;;;;;;17.85;6.07;;;12.00;80.10;;;;;;5074742;28;20128;-72
2023/03/11 05:57:25;;;;;;;11.85;6.65;;;12.00;80.20;;;;;;5074966;28;20029;-72
2023/03/11 05:59:51;;;;;;;19.95;7.03;;;12.10;80.30;;;;;;5075488;28;20426;-73
